Time;durP1;ratioP1;P1;durP2;ratioP2;P2;SDS_P1;SDS_P2;PMS_P1;PMS_P2;Temp;Humidity;BMP_temperature;BMP_pressure;BME280_temperature;BME280_humidity;BME280_pressure;Samples;Min_cycle;Max_cycle;Signal;HPM_P1;HPM_P2
2022/01/04 00:00:20;;;;;;;3.95;2.58;;;;;;;7.40;100.00;100198.91;5029972;28;20029;-62
2022/01/04 00:02:46;;;;;;;3.85;2.88;;;;;;;7.37;100.00;100196.22;5018317;28;20028;-62
2022/01/04 00:05:11;;;;;;;5.53;2.90;;;;;;;7.37;100.00;100191.97;5018542;28;20044;-62
2022/01/04 00:07:37;;;;;;;5.90;2.67;;;;;;;7.35;100.00;100187.56;5019299;28;20033;-63
2022/01/04 00:10:04;;;;;;;5.13;2.67;;;;;;;7.34;100.00;100178.94;5028576;28;20400;-62
2022/01/04 00:15:13;;;;;;;5.15;2.42;;;;;;;7.32;100.00;100178.03;5021171;28;20045;-61
2022/01/04 00:17:38;;;;;;;5.05;2.42;;;;;;;7.32;100.00;100172.88;5019386;28;20422;-62
2022/01/04 00:20:06;;;;;;;5.82;2.72;;;;;;;7.29;100.00;100172.75;5030989;28;20083;-61
2022/01/04 00:22:31;;;;;;;4.35;2.78;;;;;;;7.28;100.00;100168.44;5025767;28;20105;-62
2022/01/04 00:24:57;;;;;;;3.10;2.40;;;;;;;7.26;100.00;100162.34;5028670;28;20057;-61
2022/01/04 00:27:22;;;;;;;4.10;2.83;;;;;;;7.24;100.00;100154.56;5037440;28;20398;-61
2022/01/04 00:29:47;;;;;;;3.25;2.05;;;;;;;7.27;100.00;100153.78;5050276;28;20025;-62
2022/01/04 00:32:13;;;;;;;4.63;2.55;;;;;;;7.23;100.00;100137.38;5050759;28;20032;-61
2022/01/04 00:34:38;;;;;;;4.07;2.58;;;;;;;7.23;100.00;100126.16;5045856;28;20037;-61
2022/01/04 00:37:03;;;;;;;5.07;2.85;;;;;;;7.20;100.00;100122.66;5040242;28;20032;-62
2022/01/04 00:39:29;;;;;;;4.90;2.38;;;;;;;7.20;100.00;100116.63;5050046;28;20032;-62
2022/01/04 00:41:54;;;;;;;6.13;3.05;;;;;;;7.18;100.00;100119.16;5043854;28;20067;-61
2022/01/04 00:44:20;;;;;;;6.63;3.25;;;;;;;7.18;100.00;100124.31;5045439;28;20047;-61
2022/01/04 00:46:45;;;;;;;4.50;2.78;;;;;;;7.18;100.00;100115.69;5037028;28;20037;-60
2022/01/04 00:49:11;;;;;;;4.60;2.72;;;;;;;7.14;100.00;100112.13;5038577;28;20021;-61
2022/01/04 00:51:41;;;;;;;5.70;2.92;;;;;;;7.14;100.00;100096.66;5050181;28;20063;-61
2022/01/04 00:54:08;;;;;;;4.82;2.83;;;;;;;7.10;100.00;100094.81;5039675;28;20104;-61
2022/01/04 00:56:34;;;;;;;8.23;3.67;;;;;;;7.07;100.00;100100.75;5038904;28;20021;-61
2022/01/04 00:59:00;;;;;;;7.47;3.40;;;;;;;7.07;100.00;100085.28;5048723;28;20025;-61
2022/01/04 01:01:25;;;;;;;5.93;3.03;;;;;;;7.07;100.00;100094.69;5044516;28;20485;-61
2022/01/04 01:03:51;;;;;;;7.57;3.50;;;;;;;7.06;100.00;100092.97;5043552;28;20076;-61
2022/01/04 01:06:17;;;;;;;6.32;3.55;;;;;;;7.02;100.00;100079.09;5042568;28;20083;-62
2022/01/04 01:08:42;;;;;;;6.28;3.47;;;;;;;7.01;100.00;100084.19;5030622;28;20373;-61
2022/01/04 01:11:09;;;;;;;6.22;3.47;;;;;;;7.01;100.00;100081.63;5049919;28;20079;-62
2022/01/04 01:13:34;;;;;;;9.25;4.80;;;;;;;7.02;100.00;100075.63;5027033;28;20033;-61
2022/01/04 01:16:00;;;;;;;5.63;3.45;;;;;;;7.01;100.00;100084.19;5049205;28;20025;-62
2022/01/04 01:18:26;;;;;;;5.40;3.53;;;;;;;7.02;100.00;100085.94;5031237;28;20540;-61
2022/01/04 01:20:51;;;;;;;8.27;3.72;;;;;;;7.01;100.00;100073.91;5033787;28;20426;-62
2022/01/04 01:23:18;;;;;;;5.47;3.42;;;;;;;6.99;100.00;100071.28;5041655;28;20456;-62
2022/01/04 01:25:43;;;;;;;6.93;3.72;;;;;;;6.95;100.00;100070.28;5041503;28;20029;-61
2022/01/04 01:28:08;;;;;;;7.72;4.10;;;;;;;6.96;100.00;100066.88;5043997;28;20028;-62
2022/01/04 01:30:37;;;;;;;9.05;4.20;;;;;;;6.94;100.00;100057.34;5049265;28;20025;-62
2022/01/04 01:33:03;;;;;;;8.00;4.22;;;;;;;6.96;100.00;100056.56;5049231;28;20028;-61
2022/01/04 01:35:30;;;;;;;7.32;4.13;;;;;;;6.95;100.00;100056.53;5040755;28;20021;-61
2022/01/04 01:37:56;;;;;;;8.60;4.18;;;;;;;6.92;100.00;100054.72;5043878;28;20465;-61
2022/01/04 01:40:21;;;;;;;9.77;4.38;;;;;;;6.92;100.00;100044.44;5049576;28;20029;-62
2022/01/04 01:42:46;;;;;;;6.60;4.53;;;;;;;6.89;100.00;100041.72;5049208;28;20032;-61
2022/01/04 01:45:13;;;;;;;7.93;4.22;;;;;;;6.89;100.00;100031.44;5041616;28;20086;-61
2022/01/04 01:47:41;;;;;;;7.80;4.53;;;;;;;6.89;100.00;100038.31;5045044;28;20060;-61
2022/01/04 01:50:07;;;;;;;7.85;4.55;;;;;;;6.86;100.00;100031.31;5049221;28;20442;-61
2022/01/04 01:52:33;;;;;;;7.82;4.65;;;;;;;6.85;100.00;100033.03;5029753;28;20085;-61
2022/01/04 01:54:58;;;;;;;8.32;4.78;;;;;;;6.85;100.00;100027.00;5021970;28;20128;-62
2022/01/04 01:57:24;;;;;;;7.97;5.30;;;;;;;6.83;100.00;100023.50;5042358;28;20112;-61
2022/01/04 01:59:49;;;;;;;9.43;4.95;;;;;;;6.85;100.00;100027.00;5049138;28;20024;-61
2022/01/04 02:02:15;;;;;;;7.25;4.97;;;;;;;6.83;100.00;100033.81;5044266;28;20377;-61
2022/01/04 02:04:40;;;;;;;11.30;5.47;;;;;;;6.84;100.00;100030.41;5044889;28;20481;-61
2022/01/04 02:07:07;;;;;;;12.02;5.90;;;;;;;6.82;100.00;100021.72;5048823;28;20025;-61
2022/01/04 02:09:34;;;;;;;8.77;5.65;;;;;;;6.82;100.00;100017.47;5048965;28;20083;-62
2022/01/04 02:12:00;;;;;;;10.32;5.97;;;;;;;6.81;100.00;100010.56;5045677;28;20053;-62
2022/01/04 02:14:26;;;;;;;8.55;5.88;;;;;;;6.82;100.00;100014.00;5047586;28;20060;-62
2022/01/04 02:16:51;;;;;;;10.20;5.22;;;;;;;6.80;100.00;100003.66;5042341;28;20550;-62
2022/01/04 02:19:17;;;;;;;9.85;5.75;;;;;;;6.80;100.00;99992.50;5035781;28;20104;-61
2022/01/04 02:21:42;;;;;;;10.48;5.47;;;;;;;6.80;100.00;99988.22;5047355;28;20025;-61
2022/01/04 02:24:08;;;;;;;6.72;5.57;;;;;;;6.79;100.00;99985.59;5033878;28;20052;-61
2022/01/04 02:26:33;;;;;;;9.32;5.30;;;;;;;6.79;100.00;99977.84;5020137;28;20076;-62
2022/01/04 02:29:01;;;;;;;7.80;5.07;;;;;;;6.77;100.00;99975.22;5028791;28;20021;-62
2022/01/04 02:31:27;;;;;;;11.75;6.13;;;;;;;6.75;100.00;99974.31;5029023;28;20423;-61
2022/01/04 02:33:52;;;;;;;9.50;6.00;;;;;;;6.70;100.00;99970.69;5013834;28;20064;-61
2022/01/04 02:36:17;;;;;;;10.10;6.13;;;;;;;6.72;100.00;99974.22;5023697;28;20017;-61
2022/01/04 02:38:43;;;;;;;9.68;5.82;;;;;;;6.70;100.00;99971.59;5032440;28;20032;-61
2022/01/04 02:41:08;;;;;;;11.65;5.55;;;;;;;6.71;100.00;99975.91;5032989;28;20104;-61
2022/01/04 02:43:33;;;;;;;7.72;5.68;;;;;;;6.72;100.00;99975.09;5027165;28;20037;-62
2022/01/04 02:45:59;;;;;;;8.10;5.45;;;;;;;6.73;100.00;99970.78;5019796;28;20040;-61
2022/01/04 02:48:24;;;;;;;8.82;6.28;;;;;;;6.69;100.00;99966.38;5029502;28;20029;-61
2022/01/04 02:50:50;;;;;;;11.68;6.15;;;;;;;6.68;100.00;99957.78;5032558;28;20029;-61
2022/01/04 02:53:17;;;;;;;10.02;6.32;;;;;;;6.66;100.00;99956.84;5021792;28;20057;-62
2022/01/04 02:55:42;;;;;;;8.18;5.90;;;;;;;6.64;100.00;99953.34;5029364;28;20513;-61
2022/01/04 02:58:08;;;;;;;10.02;6.68;;;;;;;6.62;100.00;99946.41;5030977;28;20021;-61
2022/01/04 03:00:33;;;;;;;10.63;6.35;;;;;;;6.60;100.00;99943.78;5027383;28;20286;-62
2022/01/04 03:02:59;;;;;;;9.10;6.30;;;;;;;6.62;100.00;99938.69;5029599;28;20062;-60
2022/01/04 03:05:24;;;;;;;9.43;5.80;;;;;;;6.61;100.00;99935.22;5018463;28;20484;-61
2022/01/04 03:07:49;;;;;;;7.75;5.28;;;;;;;6.62;100.00;99936.97;5032122;28;20028;-61
2022/01/04 03:10:15;;;;;;;10.57;5.45;;;;;;;6.62;100.00;99933.53;5032085;28;20453;-61
2022/01/04 03:12:43;;;;;;;6.97;4.75;;;;;;;6.62;100.00;99926.66;5030806;28;20040;-62
2022/01/04 03:15:10;;;;;;;10.05;6.18;;;;;;;6.62;100.00;99921.50;5021231;28;20053;-61
2022/01/04 03:17:35;;;;;;;6.35;4.82;;;;;;;6.60;100.00;99918.88;5031959;28;20116;-61
2022/01/04 03:20:00;;;;;;;8.10;4.95;;;;;;;6.62;100.00;99920.66;5032497;28;20466;-62
2022/01/04 03:22:26;;;;;;;10.20;5.10;;;;;;;6.61;100.00;99909.47;5025939;28;20022;-62
2022/01/04 03:24:51;;;;;;;8.13;5.25;;;;;;;6.59;100.00;99900.81;5023763;28;20049;-60
2022/01/04 03:27:18;;;;;;;8.05;5.10;;;;;;;6.58;100.00;99886.22;4999771;28;20025;-60
2022/01/04 03:29:43;;;;;;;6.85;4.22;;;;;;;6.59;100.00;99886.25;5031833;28;20473;-61
2022/01/04 03:32:08;;;;;;;9.13;5.03;;;;;;;6.60;100.00;99871.69;5028897;28;20037;-61
2022/01/04 03:34:34;;;;;;;7.65;5.85;;;;;;;6.57;100.00;99875.03;5018656;28;20036;-61
2022/01/04 03:36:59;;;;;;;9.23;4.60;;;;;;;6.58;100.00;99865.63;5026848;28;20029;-61
2022/01/04 03:39:24;;;;;;;10.27;4.53;;;;;;;6.56;100.00;99869.84;5025683;28;20116;-61
2022/01/04 03:41:51;;;;;;;7.50;5.13;;;;;;;6.56;100.00;99852.69;5031242;28;20543;-60
2022/01/04 03:44:20;;;;;;;9.88;4.95;;;;;;;6.55;100.00;99852.66;5028217;28;20025;-61
2022/01/04 03:46:50;;;;;;;7.20;4.70;;;;;;;6.52;100.00;99839.66;5023656;28;20472;-61
2022/01/04 03:49:15;;;;;;;6.95;4.88;;;;;;;6.52;100.00;99837.09;5028248;28;20030;-61
2022/01/04 03:51:40;;;;;;;7.80;4.35;;;;;;;6.53;100.00;99829.41;5021122;28;20128;-61
2022/01/04 03:54:06;;;;;;;10.07;4.80;;;;;;;6.52;100.00;99816.50;5028863;28;20033;-61
2022/01/04 03:56:31;;;;;;;7.57;5.43;;;;;;;6.51;100.00;99819.91;5025157;28;20026;-61
2022/01/04 03:58:57;;;;;;;6.00;4.38;;;;;;;6.48;100.00;99816.41;5022460;28;20018;-61
2022/01/04 04:01:22;;;;;;;6.55;5.07;;;;;;;6.44;100.00;99808.53;5020137;28;20057;-61
2022/01/04 04:03:48;;;;;;;8.38;5.15;;;;;;;6.43;100.00;99810.22;5029813;28;20037;-61
2022/01/04 04:06:13;;;;;;;7.20;4.88;;;;;;;6.43;100.00;99812.81;5023695;28;20049;-61
2022/01/04 04:08:39;;;;;;;9.25;5.60;;;;;;;6.43;100.00;99801.63;5030775;28;20378;-61
2022/01/04 04:11:05;;;;;;;5.85;5.13;;;;;;;6.41;100.00;99791.28;5024297;28;20037;-61
2022/01/04 04:13:30;;;;;;;7.43;4.97;;;;;;;6.44;100.00;99799.09;5011160;28;20038;-62
2022/01/04 04:15:55;;;;;;;10.05;6.43;;;;;;;6.43;100.00;99797.38;4998402;28;20170;-61
2022/01/04 04:18:21;;;;;;;10.93;6.85;;;;;;;6.43;100.00;99784.50;5011325;28;20084;-61
2022/01/04 04:20:47;;;;;;;9.77;6.35;;;;;;;6.42;100.00;99775.00;5010927;28;20025;-61
2022/01/04 04:23:12;;;;;;;8.20;5.57;;;;;;;6.44;100.00;99777.66;5015570;28;20342;-61
2022/01/04 04:25:39;;;;;;;7.88;6.13;;;;;;;6.44;100.00;99764.78;5020133;28;20474;-61
2022/01/04 04:28:04;;;;;;;8.95;6.18;;;;;;;6.43;100.00;99761.34;5020146;28;20070;-62
2022/01/04 04:30:30;;;;;;;8.07;5.82;;;;;;;6.45;100.00;99769.97;5012978;28;20033;-60
2022/01/04 04:32:55;;;;;;;10.52;6.13;;;;;;;6.44;100.00;99767.38;5014349;28;20035;-61
2022/01/04 04:35:21;;;;;;;8.70;6.78;;;;;;;6.45;100.00;99771.66;5015574;28;20032;-61
2022/01/04 04:37:46;;;;;;;9.18;6.05;;;;;;;6.45;100.00;99767.41;5013884;28;20116;-61
2022/01/04 04:40:12;;;;;;;10.23;6.05;;;;;;;6.45;100.00;99769.09;5034056;28;20031;-61
2022/01/04 04:42:38;;;;;;;10.85;6.55;;;;;;;6.45;100.00;99769.97;5032049;28;20104;-61
2022/01/04 04:45:05;;;;;;;9.15;6.05;;;;;;;6.47;100.00;99764.88;5028526;28;20023;-62
2022/01/04 04:47:30;;;;;;;9.77;6.03;;;;;;;6.45;100.00;99759.69;5040768;28;20030;-60
2022/01/04 04:49:56;;;;;;;7.57;5.97;;;;;;;6.43;100.00;99755.31;5026629;28;20030;-62
2022/01/04 04:52:21;;;;;;;10.82;6.63;;;;;;;6.44;100.00;99757.91;5043797;28;20036;-61
2022/01/04 04:54:47;;;;;;;7.95;5.65;;;;;;;6.46;100.00;99766.56;5045424;28;20103;-62
2022/01/04 04:57:13;;;;;;;11.02;6.68;;;;;;;6.45;100.00;99767.41;5045831;28;20024;-60
2022/01/04 04:59:39;;;;;;;7.82;6.60;;;;;;;6.46;100.00;99770.81;5042140;28;20025;-61
2022/01/04 05:02:07;;;;;;;9.55;6.55;;;;;;;6.45;100.00;99774.25;5047732;28;20315;-61
2022/01/04 05:04:35;;;;;;;7.50;6.35;;;;;;;6.43;100.00;99770.75;5044662;28;20032;-61
2022/01/04 05:07:01;;;;;;;8.88;6.88;;;;;;;6.42;100.00;99758.72;5039028;28;20609;-61
2022/01/04 05:09:27;;;;;;;9.30;7.55;;;;;;;6.41;100.00;99757.81;5037103;28;20029;-61
2022/01/04 05:11:52;;;;;;;10.95;7.45;;;;;;;6.41;100.00;99757.81;5035376;28;20110;-61
2022/01/04 05:14:18;;;;;;;8.93;7.07;;;;;;;6.41;100.00;99756.94;5021009;28;20029;-61
2022/01/04 05:16:44;;;;;;;11.45;7.85;;;;;;;6.41;100.00;99755.25;5016472;28;20034;-61
2022/01/04 05:19:09;;;;;;;10.57;7.90;;;;;;;6.41;100.00;99751.81;5010403;28;20500;-62
2022/01/04 05:21:35;;;;;;;9.25;8.02;;;;;;;6.42;100.00;99749.28;5049437;28;20104;-62
2022/01/04 05:24:00;;;;;;;8.95;7.45;;;;;;;6.42;100.00;99745.84;5033571;28;20629;-62
2022/01/04 05:26:25;;;;;;;10.10;7.72;;;;;;;6.41;100.00;99742.38;5029233;28;20021;-62
2022/01/04 05:28:51;;;;;;;10.23;7.78;;;;;;;6.40;100.00;99734.63;5047854;28;20048;-60
2022/01/04 05:31:16;;;;;;;10.50;8.18;;;;;;;6.39;100.00;99738.00;5044471;28;20469;-61
2022/01/04 05:33:42;;;;;;;9.95;8.27;;;;;;;6.40;100.00;99737.19;5047794;28;20469;-62
2022/01/04 05:36:07;;;;;;;10.57;8.45;;;;;;;6.40;100.00;99730.34;5040225;28;20056;-62
2022/01/04 05:38:33;;;;;;;11.55;8.82;;;;;;;6.39;100.00;99728.59;5043142;28;20172;-62
2022/01/04 05:40:59;;;;;;;10.43;8.50;;;;;;;6.40;100.00;99703.75;5043755;28;20017;-62
2022/01/04 05:43:24;;;;;;;13.45;8.52;;;;;;;6.38;100.00;99706.28;5036521;28;20029;-62
2022/01/04 05:45:49;;;;;;;11.85;8.77;;;;;;;6.37;100.00;99704.50;5041042;28;20498;-61
2022/01/04 05:48:18;;;;;;;10.73;9.52;;;;;;;6.33;100.00;99702.69;5045808;28;20044;-61
2022/01/04 05:50:44;;;;;;;11.90;10.00;;;;;;;6.28;100.00;99693.94;5049288;28;20091;-61
2022/01/04 05:53:09;;;;;;;11.38;10.10;;;;;;;6.29;100.00;99698.25;5038734;28;20033;-61
2022/01/04 05:55:35;;;;;;;13.90;10.73;;;;;;;6.25;100.00;99699.88;5039480;28;20088;-62
2022/01/04 05:58:00;;;;;;;11.95;10.15;;;;;;;6.24;100.00;99698.97;5039495;28;20029;-62
2022/01/04 06:00:26;;;;;;;11.02;9.80;;;;;;;6.18;100.00;99701.38;5048779;28;20036;-61
2022/01/04 06:02:52;;;;;;;12.93;10.57;;;;;;;6.19;100.00;99699.69;5044794;28;20033;-62
2022/01/04 06:05:17;;;;;;;13.50;11.45;;;;;;;6.17;100.00;99699.59;5040652;28;20037;-62
2022/01/04 06:07:43;;;;;;;13.23;11.52;;;;;;;6.16;100.00;99694.41;5048262;28;20079;-62
2022/01/04 06:10:10;;;;;;;13.77;10.88;;;;;;;6.17;100.00;99694.47;5045222;28;20039;-61
2022/01/04 06:15:09;;;;;;;15.98;12.48;;;;;;;6.17;100.00;99689.31;5051162;28;20029;-61
2022/01/04 06:17:42;;;;;;;14.93;12.32;;;;;;;6.16;100.00;99685.00;5044248;28;20032;-62
2022/01/04 06:20:10;;;;;;;15.73;12.60;;;;;;;6.16;100.00;99690.16;5048753;28;20033;-62
2022/01/04 06:22:37;;;;;;;14.82;13.30;;;;;;;6.16;100.00;99690.16;5039629;28;20055;-62
2022/01/04 06:25:03;;;;;;;17.20;13.63;;;;;;;6.16;100.00;99674.72;5045500;28;20455;-62
2022/01/04 06:27:29;;;;;;;16.33;13.75;;;;;;;6.18;100.00;99673.06;5043067;28;20458;-62
2022/01/04 06:29:54;;;;;;;14.95;13.40;;;;;;;6.18;100.00;99664.47;5055596;28;20465;-60
2022/01/04 06:32:19;;;;;;;16.27;14.30;;;;;;;6.16;100.00;99667.00;5054942;28;20086;-62
2022/01/04 06:34:45;;;;;;;16.98;13.40;;;;;;;6.16;100.00;99677.28;5030683;28;20040;-62
2022/01/04 06:37:12;;;;;;;15.75;13.95;;;;;;;6.15;100.00;99685.84;5045298;28;20029;-62
2022/01/04 06:39:37;;;;;;;15.98;14.38;;;;;;;6.16;100.00;99681.56;5055569;28;20055;-60
2022/01/04 06:42:03;;;;;;;16.25;14.15;;;;;;;6.15;100.00;99662.69;5055403;28;20029;-61
2022/01/04 06:44:29;;;;;;;16.25;14.27;;;;;;;6.15;100.00;99670.41;5031659;28;20028;-62
2022/01/04 06:46:54;;;;;;;15.38;13.88;;;;;;;6.16;100.00;99684.13;5048210;28;20459;-61
2022/01/04 06:49:20;;;;;;;17.05;14.23;;;;;;;6.16;100.00;99685.00;5055568;28;20505;-59
2022/01/04 06:51:47;;;;;;;16.05;14.45;;;;;;;6.17;100.00;99673.03;5055750;28;20423;-62
2022/01/04 06:54:15;;;;;;;17.92;13.80;;;;;;;6.16;100.00;99664.44;5032861;28;20041;-62
2022/01/04 06:56:41;;;;;;;14.57;12.88;;;;;;;6.16;100.00;99650.69;5047633;28;20040;-61
2022/01/04 06:59:07;;;;;;;15.68;13.88;;;;;;;6.16;100.00;99654.13;5055155;28;20021;-61
2022/01/04 07:01:34;;;;;;;16.23;14.52;;;;;;;6.16;100.00;99642.97;5055431;28;20048;-60
2022/01/04 07:03:59;;;;;;;16.50;14.70;;;;;;;6.16;100.00;99649.00;5052779;28;20033;-62
2022/01/04 07:06:25;;;;;;;16.17;13.60;;;;;;;6.16;100.00;99656.72;5048676;28;20059;-62
2022/01/04 07:08:50;;;;;;;15.10;13.60;;;;;;;6.15;100.00;99654.97;5055017;28;20397;-60
2022/01/04 07:11:16;;;;;;;15.98;13.50;;;;;;;6.16;100.00;99653.25;5055015;28;20074;-61
2022/01/04 07:13:42;;;;;;;14.85;13.35;;;;;;;6.12;100.00;99634.28;5054116;28;20089;-61
2022/01/04 07:16:07;;;;;;;16.88;15.13;;;;;;;6.13;100.00;99618.03;5045981;28;20026;-62
2022/01/04 07:18:33;;;;;;;20.90;15.75;;;;;;;6.12;100.00;99621.41;5055193;28;20025;-61
2022/01/04 07:20:59;;;;;;;20.38;16.23;;;;;;;6.10;100.00;99630.78;5054091;28;20029;-61
2022/01/04 07:23:24;;;;;;;18.05;15.07;;;;;;;6.10;100.00;99625.63;5041468;28;20033;-62
2022/01/04 07:25:51;;;;;;;18.83;15.43;;;;;;;6.12;100.00;99642.00;5041302;28;20029;-62
2022/01/04 07:28:17;;;;;;;18.13;14.77;;;;;;;6.15;100.00;99631.81;5051638;28;20106;-61
2022/01/04 07:30:42;;;;;;;18.48;16.48;;;;;;;6.13;100.00;99618.88;5048520;28;20076;-62
2022/01/04 07:33:07;;;;;;;18.90;15.23;;;;;;;6.10;100.00;99610.19;5046517;28;20104;-61
2022/01/04 07:35:33;;;;;;;20.17;15.57;;;;;;;6.11;100.00;99606.81;5049243;28;20063;-62
2022/01/04 07:37:58;;;;;;;20.65;15.68;;;;;;;6.06;100.00;99596.38;5051766;28;20035;-62
2022/01/04 07:40:24;;;;;;;20.05;16.50;;;;;;;6.08;100.00;99593.88;5045042;28;20033;-62
2022/01/04 07:42:50;;;;;;;21.52;18.02;;;;;;;6.06;100.00;99601.53;5045522;28;20049;-61
2022/01/04 07:45:15;;;;;;;23.38;16.40;;;;;;;6.07;100.00;99592.13;5051011;28;20032;-61
2022/01/04 07:47:41;;;;;;;19.95;16.02;;;;;;;6.05;100.00;99599.78;5049084;28;20029;-62
2022/01/04 07:50:08;;;;;;;22.42;17.33;;;;;;;6.05;100.00;99593.72;5048938;28;20436;-61
2022/01/04 07:52:34;;;;;;;19.30;15.97;;;;;;;6.01;100.00;99603.94;5042209;28;20100;-62
2022/01/04 07:55:00;;;;;;;21.27;16.98;;;;;;;6.01;100.00;99605.63;5035581;28;20120;-61
2022/01/04 07:57:26;;;;;;;23.00;16.83;;;;;;;6.01;100.00;99613.34;5047346;28;20029;-61
2022/01/04 07:59:51;;;;;;;20.40;16.13;;;;;;;6.03;100.00;99613.41;5042152;28;20408;-61
2022/01/04 08:02:17;;;;;;;20.58;16.92;;;;;;;6.01;100.00;99624.50;5044379;28;20099;-62
2022/01/04 08:04:42;;;;;;;23.00;17.85;;;;;;;6.04;100.00;99610.00;5049439;28;20037;-62
2022/01/04 08:07:08;;;;;;;20.42;16.38;;;;;;;6.03;100.00;99609.13;5048869;28;20366;-61
2022/01/04 08:09:33;;;;;;;22.83;17.90;;;;;;;6.03;100.00;99611.69;5049146;28;20078;-62
2022/01/04 08:11:58;;;;;;;22.57;18.13;;;;;;;6.05;100.00;99614.31;5039369;28;20041;-60
2022/01/04 08:14:24;;;;;;;23.02;18.35;;;;;;;6.05;100.00;99602.34;5050574;28;20120;-62
2022/01/04 08:16:49;;;;;;;23.30;17.37;;;;;;;6.07;100.00;99604.97;5051389;28;20421;-61
2022/01/04 08:19:14;;;;;;;24.13;18.27;;;;;;;6.06;100.00;99605.81;5051009;28;20447;-61
2022/01/04 08:21:40;;;;;;;26.13;18.43;;;;;;;6.09;100.00;99611.03;5044138;28;20280;-60
2022/01/04 08:24:06;;;;;;;22.83;17.77;;;;;;;6.11;100.00;99607.72;5032592;28;20080;-62
2022/01/04 08:26:31;;;;;;;24.47;18.17;;;;;;;6.09;100.00;99609.34;5030344;28;20401;-62
2022/01/04 08:28:57;;;;;;;23.35;17.70;;;;;;;6.10;100.00;99612.78;5031004;28;20072;-61
2022/01/04 08:31:23;;;;;;;20.40;17.00;;;;;;;6.11;100.00;99604.25;5023515;28;20021;-61
2022/01/04 08:33:48;;;;;;;21.88;17.48;;;;;;;6.11;100.00;99606.81;5030912;28;20413;-62
2022/01/04 08:36:14;;;;;;;22.23;16.42;;;;;;;6.10;100.00;99602.50;5030489;28;20022;-62
2022/01/04 08:38:39;;;;;;;22.58;18.30;;;;;;;6.11;100.00;99615.44;5030628;28;20029;-61
2022/01/04 08:41:05;;;;;;;26.23;18.02;;;;;;;6.12;100.00;99613.69;5025469;28;20028;-61
2022/01/04 08:43:31;;;;;;;28.65;18.75;;;;;;;6.13;100.00;99623.19;5028711;28;20030;-61
2022/01/04 08:45:56;;;;;;;22.33;18.60;;;;;;;6.15;100.00;99636.09;5030387;28;20029;-61
2022/01/04 08:48:22;;;;;;;25.10;18.83;;;;;;;6.16;100.00;99642.97;5030633;28;20112;-61
2022/01/04 08:50:48;;;;;;;24.58;18.20;;;;;;;6.16;100.00;99641.28;5028097;28;20052;-61
2022/01/04 08:53:14;;;;;;;26.33;18.27;;;;;;;6.17;100.00;99645.59;5016608;28;20131;-62
2022/01/04 08:55:40;;;;;;;25.55;19.48;;;;;;;6.16;100.00;99649.00;5026015;28;20045;-62
2022/01/04 08:58:06;;;;;;;25.77;19.00;;;;;;;6.16;100.00;99659.28;5027382;28;20100;-62
2022/01/04 09:00:31;;;;;;;24.58;17.73;;;;;;;6.17;100.00;99649.88;5030381;28;20040;-61
2022/01/04 09:02:59;;;;;;;26.15;19.30;;;;;;;6.16;100.00;99656.72;5021068;28;20025;-62
2022/01/04 09:05:25;;;;;;;24.92;18.77;;;;;;;6.16;100.00;99642.97;5030261;28;20048;-61
2022/01/04 09:07:50;;;;;;;27.05;18.45;;;;;;;6.17;100.00;99639.59;5030081;28;20037;-61
2022/01/04 09:10:15;;;;;;;25.05;17.77;;;;;;;6.19;100.00;99627.66;5029741;28;20025;-62
2022/01/04 09:13:03;;;;;;;25.63;18.67;;;;;;;6.19;100.00;99633.66;5023923;28;20018;-61
2022/01/04 09:20:42;;;;;;;25.38;18.92;;;;;;;6.26;100.00;99628.69;5028695;28;20078;-62
2022/01/04 09:23:08;;;;;;;24.53;18.43;;;;;;;6.27;100.00;99626.16;5022983;28;20052;-62
2022/01/04 09:25:33;;;;;;;28.10;20.13;;;;;;;6.27;100.00;99630.44;5029238;28;20041;-62
2022/01/04 09:27:58;;;;;;;24.25;18.33;;;;;;;6.28;100.00;99634.78;5029317;28;20037;-62
2022/01/04 09:30:24;;;;;;;24.08;18.45;;;;;;;6.30;100.00;99651.09;5029380;28;20128;-61
2022/01/04 09:32:50;;;;;;;26.50;19.38;;;;;;;6.30;100.00;99649.41;5022721;28;20071;-61
2022/01/04 09:35:15;;;;;;;23.35;17.95;;;;;;;6.32;100.00;99657.19;5029222;28;20034;-61
2022/01/04 09:37:41;;;;;;;24.65;18.75;;;;;;;6.33;100.00;99651.22;5029356;28;20025;-61
2022/01/04 09:40:08;;;;;;;25.38;19.85;;;;;;;6.34;100.00;99660.66;5029023;28;20033;-61
2022/01/04 09:42:34;;;;;;;27.15;18.92;;;;;;;6.37;100.00;99655.63;5016514;28;20025;-61
2022/01/04 09:45:00;;;;;;;26.98;19.85;;;;;;;6.36;100.00;99656.44;5028558;28;20033;-62
2022/01/04 09:47:25;;;;;;;27.00;20.02;;;;;;;6.36;100.00;99651.31;5029252;28;20040;-62
2022/01/04 09:49:51;;;;;;;26.88;19.88;;;;;;;6.38;100.00;99648.78;5029298;28;20051;-62
2022/01/04 09:52:21;;;;;;;26.70;19.05;;;;;;;6.39;100.00;99648.81;5015366;28;20069;-62
2022/01/04 09:54:51;;;;;;;26.25;19.90;;;;;;;6.43;100.00;99654.94;5026547;28;20037;-62
2022/01/04 09:57:17;;;;;;;27.25;20.63;;;;;;;6.43;100.00;99647.22;5029517;28;20029;-62
2022/01/04 09:59:43;;;;;;;26.73;21.00;;;;;;;6.43;100.00;99642.94;5029209;28;20482;-62
2022/01/04 10:02:20;;;;;;;26.75;21.83;;;;;;;6.45;100.00;99638.72;5020102;28;20493;-62
2022/01/04 10:04:47;;;;;;;30.92;22.35;;;;;;;6.46;100.00;99642.13;5024435;28;20422;-62
2022/01/04 10:07:12;;;;;;;28.15;21.65;;;;;;;6.46;100.00;99637.88;5027302;28;20418;-62
2022/01/04 10:09:44;;;;;;;29.42;22.58;;;;;;;6.46;100.00;99648.16;5028887;28;20088;-61
2022/01/04 10:12:10;;;;;;;;;;;;;;;6.46;100.00;99630.16;5018894;28;20113;-62
2022/01/04 10:14:40;;;;;;;30.60;22.70;;;;;;;6.46;100.00;99632.72;5020689;28;19913;-62
2022/01/04 10:17:32;;;;;;;31.83;23.33;;;;;;;6.48;100.00;99618.22;5029265;28;20021;-62
2022/01/04 10:20:00;;;;;;;32.78;25.00;;;;;;;6.51;100.00;99614.88;5019294;28;20033;-62
2022/01/04 10:22:34;;;;;;;32.75;24.80;;;;;;;6.55;100.00;99611.53;5020592;28;20029;-60
2022/01/04 10:25:02;;;;;;;31.58;23.63;;;;;;;6.58;100.00;99605.63;5034338;28;20097;-62
2022/01/04 10:27:44;;;;;;;33.50;24.58;;;;;;;6.61;100.00;99610.84;5048749;28;20033;-62
2022/01/04 10:30:30;;;;;;;33.25;24.40;;;;;;;6.66;100.00;99613.53;5048844;28;20408;-62
2022/01/04 10:33:06;;;;;;;31.30;24.75;;;;;;;6.69;100.00;99611.06;5036532;28;20389;-62
2022/01/04 10:35:33;;;;;;;31.70;23.98;;;;;;;6.70;100.00;99613.69;5038364;28;20052;-62
2022/01/04 10:38:08;;;;;;;29.67;23.95;;;;;;;6.72;100.00;99608.56;5048738;28;20100;-61
2022/01/04 10:40:33;;;;;;;33.67;24.98;;;;;;;6.76;100.00;99606.94;5046916;28;20017;-62
2022/01/04 10:43:07;;;;;;;30.52;24.58;;;;;;;6.78;100.00;99595.84;5048719;28;20377;-62
2022/01/04 10:45:33;;;;;;;32.67;24.35;;;;;;;6.80;100.00;99601.06;5046324;28;20346;-62
2022/01/04 10:48:10;;;;;;;32.88;24.48;;;;;;;6.82;100.00;99599.38;5043881;28;20112;-61
2022/01/04 10:50:37;;;;;;;30.85;24.23;;;;;;;6.85;100.00;99604.63;5032612;28;20089;-63
2022/01/04 10:53:04;;;;;;;29.20;23.02;;;;;;;6.88;100.00;99598.69;5037239;28;20419;-61
2022/01/04 10:55:34;;;;;;;32.17;23.80;;;;;;;6.88;100.00;99603.84;5044804;28;20021;-62
2022/01/04 10:58:02;;;;;;;31.75;23.92;;;;;;;6.91;100.00;99599.63;5031535;28;20470;-61
2022/01/04 11:00:28;;;;;;;30.67;24.20;;;;;;;6.89;100.00;99598.72;5032783;28;20495;-62
2022/01/04 11:02:54;;;;;;;30.52;23.60;;;;;;;6.91;100.00;99604.78;5049435;28;20532;-62
2022/01/04 11:05:21;;;;;;;32.38;24.83;;;;;;;6.93;100.00;99597.09;5046485;28;20021;-62
2022/01/04 11:07:55;;;;;;;34.92;24.83;;;;;;;6.94;100.00;99596.28;5052396;28;20029;-63
2022/01/04 11:10:21;;;;;;;30.80;24.60;;;;;;;6.94;100.00;99599.72;5048841;28;20470;-62
2022/01/04 11:12:48;;;;;;;31.65;24.67;;;;;;;6.96;100.00;99594.63;5048946;28;20314;-62
2022/01/04 11:15:14;;;;;;;32.08;24.63;;;;;;;6.96;100.00;99598.06;5046986;28;20056;-63
2022/01/04 11:17:40;;;;;;;34.85;25.40;;;;;;;6.97;100.00;99591.22;5051818;28;20068;-61
2022/01/04 11:20:06;;;;;;;30.98;25.50;;;;;;;6.99;100.00;99580.94;5047029;28;20191;-60
2022/01/04 11:22:33;;;;;;;34.80;25.55;;;;;;;7.00;100.00;99583.56;5045109;28;20107;-61
2022/01/04 11:25:02;;;;;;;28.00;24.50;;;;;;;7.03;100.00;99593.09;5038934;28;20580;-62
2022/01/04 11:27:31;;;;;;;37.50;26.02;;;;;;;7.00;100.00;99598.16;5031727;28;20036;-62
2022/01/04 11:29:58;;;;;;;34.90;26.88;;;;;;;7.02;100.00;99605.09;5028340;28;20068;-61